createdAt,value
2019-01-19T00:00:33.679Z,5.30
2019-01-19T00:03:49.072Z,5.90
2019-01-19T00:07:16.164Z,5.33
2019-01-19T00:10:39.959Z,5.20
2019-01-19T00:14:12.398Z,5.37
2019-01-19T00:17:51.144Z,5.13
2019-01-19T00:21:32.754Z,5.63
2019-01-19T00:24:58.457Z,5.53
2019-01-19T00:28:25.206Z,5.10
2019-01-19T00:31:44.100Z,5.37
2019-01-19T00:35:18.445Z,3.90
2019-01-19T00:39:31.084Z,4.60
2019-01-19T00:43:05.630Z,4.57
2019-01-19T00:46:37.116Z,5.00
2019-01-19T00:49:53.005Z,4.83
2019-01-19T00:53:10.626Z,3.70
2019-01-19T00:56:43.439Z,4.13
2019-01-19T00:59:53.108Z,4.30
2019-01-19T01:03:11.699Z,4.97
2019-01-19T01:06:55.507Z,3.77
2019-01-19T01:10:32.493Z,4.07
2019-01-19T01:13:58.778Z,3.60
2019-01-19T01:17:19.079Z,4.53
2019-01-19T01:20:44.723Z,4.30
2019-01-19T01:24:13.365Z,4.53
2019-01-19T01:27:54.597Z,4.23
2019-01-19T01:31:26.130Z,4.43
2019-01-19T01:35:09.975Z,4.57
2019-01-19T01:39:18.305Z,4.87
2019-01-19T01:42:43.940Z,5.10
2019-01-19T01:46:17.243Z,4.87
2019-01-19T01:49:39.466Z,4.17
2019-01-19T01:53:08.577Z,5.07
2019-01-19T01:56:15.121Z,5.10
2019-01-19T02:00:14.288Z,4.47
2019-01-19T02:04:07.560Z,4.70
2019-01-19T02:07:48.683Z,4.67
2019-01-19T02:11:15.352Z,5.13
2019-01-19T02:14:47.341Z,5.57
2019-01-19T02:18:15.007Z,5.73
2019-01-19T02:22:04.068Z,5.20
2019-01-19T02:26:04.691Z,4.80
2019-01-19T02:29:53.075Z,4.77
2019-01-19T02:33:26.412Z,4.87
2019-01-19T02:36:50.346Z,4.90
2019-01-19T02:40:25.785Z,3.93
2019-01-19T02:43:53.646Z,4.50
2019-01-19T02:47:24.899Z,4.73
2019-01-19T02:50:43.803Z,4.70
2019-01-19T02:54:13.603Z,4.93
2019-01-19T02:57:56.606Z,5.87
2019-01-19T03:01:44.391Z,4.50
2019-01-19T03:05:26.448Z,4.50
2019-01-19T03:09:29.982Z,5.70
2019-01-19T03:13:02.781Z,5.17
2019-01-19T03:16:52.800Z,5.03
2019-01-19T03:21:05.468Z,5.00
2019-01-19T03:25:04.978Z,5.10
2019-01-19T03:28:41.791Z,4.97
2019-01-19T03:32:35.847Z,5.97
2019-01-19T03:36:04.333Z,5.60
2019-01-19T03:39:32.435Z,5.77
2019-01-19T03:43:13.586Z,6.03
2019-01-19T03:46:44.138Z,5.90
2019-01-19T03:50:10.299Z,5.40
2019-01-19T03:53:54.510Z,6.00
2019-01-19T03:57:40.067Z,6.30
2019-01-19T04:01:01.545Z,6.73
2019-01-19T04:04:33.669Z,6.53
2019-01-19T04:07:51.307Z,6.27
2019-01-19T04:11:19.915Z,6.57
2019-01-19T04:14:39.961Z,7.47
2019-01-19T04:18:12.408Z,6.47
2019-01-19T04:21:43.079Z,6.93
2019-01-19T04:25:25.336Z,6.97
2019-01-19T04:28:29.526Z,7.00
2019-01-19T04:31:33.635Z,7.27
2019-01-19T04:34:37.667Z,8.00
2019-01-19T04:37:41.623Z,6.80
2019-01-19T04:40:45.615Z,6.30
2019-01-19T04:43:49.470Z,6.63
2019-01-19T04:46:53.405Z,6.27
2019-01-19T04:49:57.428Z,6.73
2019-01-19T04:53:03.582Z,7.47
2019-01-19T04:56:07.630Z,7.20
2019-01-19T04:59:11.538Z,7.83
2019-01-19T05:02:15.483Z,7.90
2019-01-19T05:05:19.444Z,7.27
2019-01-19T05:08:23.362Z,7.97
2019-01-19T05:11:27.221Z,8.07
2019-01-19T05:14:31.084Z,7.40
2019-01-19T05:17:34.924Z,7.93
2019-01-19T05:20:38.877Z,7.90
2019-01-19T05:23:42.890Z,8.30
2019-01-19T05:26:46.743Z,8.00
2019-01-19T05:29:50.601Z,8.00
2019-01-19T05:32:54.736Z,8.63
2019-01-19T05:35:58.662Z,7.90
2019-01-19T05:39:02.762Z,10.23
2019-01-19T05:42:06.789Z,9.77
2019-01-19T05:45:12.984Z,9.97
2019-01-19T05:48:16.864Z,10.03
2019-01-19T05:51:20.875Z,10.83
2019-01-19T05:54:24.724Z,10.50
2019-01-19T05:57:28.585Z,11.43
2019-01-19T06:00:34.852Z,11.73
2019-01-19T06:03:41.643Z,12.00
2019-01-19T06:06:46.887Z,10.00
2019-01-19T06:09:51.423Z,10.93
2019-01-19T06:12:55.456Z,11.60
2019-01-19T06:16:01.111Z,11.17
2019-01-19T06:19:08.137Z,11.30
2019-01-19T06:22:12.430Z,11.93
2019-01-19T06:25:16.480Z,12.60
2019-01-19T06:28:20.423Z,13.50
2019-01-19T06:31:24.269Z,14.80
2019-01-19T06:34:28.585Z,13.70
2019-01-19T06:37:32.519Z,15.00
2019-01-19T06:40:36.523Z,15.33
2019-01-19T06:43:40.489Z,16.37
2019-01-19T06:46:44.486Z,15.80
2019-01-19T06:49:48.387Z,17.10
2019-01-19T06:52:52.428Z,19.83
2019-01-19T06:55:56.333Z,18.37
2019-01-19T06:59:00.597Z,19.37
2019-01-19T07:02:04.557Z,18.73
2019-01-19T07:05:08.689Z,20.33
2019-01-19T07:08:14.675Z,19.83
2019-01-19T07:11:22.282Z,22.30
2019-01-19T07:14:26.161Z,23.23
2019-01-19T07:17:30.201Z,23.10
2019-01-19T07:20:34.090Z,23.77
2019-01-19T07:23:38.029Z,25.30
2019-01-19T07:26:41.999Z,25.77
2019-01-19T07:29:46.443Z,25.23
2019-01-19T07:32:50.428Z,24.83
2019-01-19T07:35:54.446Z,26.73
2019-01-19T07:38:58.308Z,24.27
2019-01-19T07:42:02.275Z,26.83
2019-01-19T07:45:07.051Z,27.60
2019-01-19T07:48:11.495Z,27.93
2019-01-19T07:51:15.506Z,29.17
2019-01-19T07:54:19.510Z,30.53
2019-01-19T07:57:23.431Z,29.00
2019-01-19T08:00:29.583Z,30.53
2019-01-19T08:03:33.908Z,30.63
2019-01-19T08:06:37.843Z,29.07
2019-01-19T08:09:41.776Z,30.77
2019-01-19T08:12:45.834Z,32.37
2019-01-19T08:15:49.762Z,31.87
2019-01-19T08:18:53.634Z,32.03
2019-01-19T08:21:57.577Z,31.97
2019-01-19T08:25:01.559Z,31.77
2019-01-19T08:28:07.064Z,29.53
2019-01-19T08:31:11.098Z,32.87
2019-01-19T08:34:15.028Z,29.63
2019-01-19T08:37:24.424Z,31.50
2019-01-19T08:40:27.101Z,32.13
2019-01-19T08:43:43.034Z,28.87
2019-01-19T08:46:46.915Z,32.17
2019-01-19T08:49:50.842Z,29.43
2019-01-19T08:52:57.181Z,28.50
2019-01-19T08:56:01.115Z,29.07
2019-01-19T08:59:05.322Z,29.47
2019-01-19T09:02:09.545Z,29.53
2019-01-19T09:05:13.630Z,32.03
2019-01-19T09:08:17.666Z,29.50
2019-01-19T09:11:21.631Z,31.03
2019-01-19T09:14:25.603Z,30.30
2019-01-19T09:17:29.557Z,30.03
2019-01-19T09:20:33.768Z,29.90
2019-01-19T09:23:54.214Z,30.00
2019-01-19T09:26:58.174Z,28.17
2019-01-19T09:30:02.111Z,28.23
2019-01-19T09:33:06.762Z,31.47
2019-01-19T09:36:10.769Z,31.37
2019-01-19T09:39:14.715Z,31.07
2019-01-19T09:42:18.658Z,32.70
2019-01-19T09:45:22.692Z,30.17
2019-01-19T09:48:26.677Z,33.47
2019-01-19T09:51:30.677Z,31.23
2019-01-19T09:54:34.635Z,28.97
2019-01-19T09:57:38.708Z,32.50
2019-01-19T10:00:45.771Z,34.00
2019-01-19T10:03:50.587Z,32.83
2019-01-19T10:06:54.621Z,33.03
2019-01-19T10:09:58.591Z,32.37
2019-01-19T10:13:02.599Z,32.63
2019-01-19T10:16:06.737Z,33.90
2019-01-19T10:19:10.704Z,32.93
2019-01-19T10:22:14.628Z,32.77
2019-01-19T10:25:18.869Z,32.17
2019-01-19T10:28:25.917Z,32.63
2019-01-19T10:31:29.853Z,31.13
2019-01-19T10:34:33.900Z,39.23
2019-01-19T10:37:37.765Z,32.90
2019-01-19T10:40:41.781Z,30.53
2019-01-19T10:43:45.662Z,31.67
2019-01-19T10:46:49.899Z,32.30
2019-01-19T10:49:53.888Z,32.00
2019-01-19T10:52:57.886Z,31.37
2019-01-19T10:56:01.844Z,30.33
2019-01-19T10:59:07.782Z,30.53
2019-01-19T11:02:11.687Z,29.93
2019-01-19T11:05:15.795Z,29.20
2019-01-19T11:08:19.729Z,28.70
2019-01-19T11:11:23.822Z,28.73
2019-01-19T11:14:27.700Z,30.50
2019-01-19T11:17:31.562Z,29.20
2019-01-19T11:20:35.577Z,29.10
2019-01-19T11:23:40.045Z,27.33
2019-01-19T11:26:44.100Z,26.87
2019-01-19T11:29:47.970Z,26.97
2019-01-19T11:32:52.068Z,27.57
2019-01-19T11:35:56.016Z,27.60
2019-01-19T11:38:59.976Z,26.53
2019-01-19T11:42:06.264Z,25.60
2019-01-19T11:45:12.960Z,24.53
2019-01-19T11:48:16.841Z,26.00
2019-01-19T11:51:22.724Z,25.13
2019-01-19T11:54:26.638Z,24.60
2019-01-19T11:57:30.695Z,24.53
2019-01-19T12:00:36.838Z,22.23
2019-01-19T12:03:40.830Z,22.63
2019-01-19T12:06:44.844Z,22.07
2019-01-19T12:09:49.015Z,20.17
2019-01-19T12:12:53.093Z,21.33
2019-01-19T12:15:57.137Z,19.97
2019-01-19T12:19:01.012Z,19.37
2019-01-19T12:22:05.079Z,19.13
2019-01-19T12:25:11.298Z,19.43
2019-01-19T12:28:15.261Z,19.00
2019-01-19T12:31:19.278Z,18.67
2019-01-19T12:34:23.312Z,17.80
2019-01-19T12:37:27.328Z,15.73
2019-01-19T12:40:31.557Z,16.43
2019-01-19T12:43:35.597Z,15.80
2019-01-19T12:46:39.633Z,15.13
2019-01-19T12:49:43.641Z,14.83
2019-01-19T12:52:47.697Z,14.07
2019-01-19T12:55:51.655Z,13.57
2019-01-19T12:58:55.579Z,13.87
2019-01-19T13:01:59.524Z,13.43
2019-01-19T13:05:03.771Z,13.37
2019-01-19T13:08:09.619Z,13.70
2019-01-19T13:11:44.832Z,13.40
2019-01-19T13:14:57.000Z,12.63
2019-01-19T13:18:38.976Z,13.70
2019-01-19T13:22:30.270Z,12.97
2019-01-19T13:26:27.537Z,13.77
2019-01-19T13:29:51.173Z,13.70
2019-01-19T13:33:03.723Z,14.60
2019-01-19T13:37:03.381Z,13.80
2019-01-19T13:40:33.205Z,14.57
2019-01-19T13:44:08.376Z,15.07
2019-01-19T13:47:50.087Z,16.30
2019-01-19T13:51:21.875Z,17.00
2019-01-19T13:55:04.953Z,16.10
2019-01-19T13:58:21.378Z,15.03
2019-01-19T14:02:11.403Z,14.90
2019-01-19T14:05:50.488Z,15.43
2019-01-19T14:09:37.926Z,16.53
2019-01-19T14:13:18.185Z,16.40
2019-01-19T14:16:50.342Z,16.73
2019-01-19T14:20:25.444Z,16.97
2019-01-19T14:24:22.828Z,17.57
2019-01-19T14:28:12.660Z,18.07
2019-01-19T14:31:40.863Z,18.50
2019-01-19T14:35:06.004Z,19.77
2019-01-19T14:38:56.690Z,19.20
2019-01-19T14:42:33.494Z,20.10
2019-01-19T14:46:01.302Z,19.50
2019-01-19T14:49:34.186Z,20.53
2019-01-19T14:53:04.042Z,20.00
2019-01-19T14:56:49.399Z,20.87
2019-01-19T15:00:48.504Z,19.83
2019-01-19T15:04:45.677Z,19.83
2019-01-19T15:08:14.638Z,19.93
2019-01-19T15:12:05.242Z,21.27
2019-01-19T15:15:50.550Z,20.83
2019-01-19T15:19:47.881Z,21.00
2019-01-19T15:23:15.958Z,21.43
2019-01-19T15:27:16.088Z,23.27
2019-01-19T15:30:52.032Z,21.73
2019-01-19T15:34:39.987Z,21.57
2019-01-19T15:38:10.575Z,20.57
2019-01-19T15:41:51.571Z,20.30
2019-01-19T15:45:51.732Z,22.60
2019-01-19T15:49:23.345Z,50.57
2019-01-19T15:52:45.152Z,24.13
2019-01-19T15:56:37.509Z,24.27
2019-01-19T16:00:20.433Z,23.97
2019-01-19T16:04:08.916Z,24.57
2019-01-19T16:08:01.804Z,26.53
2019-01-19T16:11:30.799Z,24.97
2019-01-19T16:15:15.284Z,25.27
2019-01-19T16:18:50.138Z,24.23
2019-01-19T16:22:22.303Z,27.00
2019-01-19T16:25:59.609Z,27.83
2019-01-19T16:29:43.718Z,29.33
2019-01-19T16:33:26.100Z,27.37
2019-01-19T16:36:57.291Z,28.93
2019-01-19T16:40:44.466Z,31.37
2019-01-19T16:44:50.775Z,29.83
2019-01-19T16:48:23.004Z,30.80
2019-01-19T16:51:53.286Z,32.13
2019-01-19T16:55:28.219Z,33.43
2019-01-19T16:59:01.048Z,35.57
2019-01-19T17:02:33.762Z,38.13
2019-01-19T17:06:19.059Z,37.90
2019-01-19T17:09:44.646Z,37.57
2019-01-19T17:13:27.465Z,38.50
2019-01-19T17:16:58.827Z,38.33
2019-01-19T17:20:49.437Z,36.80
2019-01-19T17:24:34.420Z,36.20
2019-01-19T17:28:16.312Z,34.63
2019-01-19T17:31:50.871Z,37.67
2019-01-19T17:35:39.043Z,39.20
2019-01-19T17:39:16.783Z,36.23
2019-01-19T17:42:56.883Z,36.80
2019-01-19T17:46:34.908Z,36.63
2019-01-19T17:50:24.221Z,37.30
2019-01-19T17:54:00.032Z,35.70
2019-01-19T17:57:18.273Z,37.03
2019-01-19T18:01:18.526Z,34.60
2019-01-19T18:04:41.270Z,35.27
2019-01-19T18:08:10.224Z,37.10
2019-01-19T18:11:52.044Z,36.00
2019-01-19T18:15:38.978Z,33.77
2019-01-19T18:19:17.278Z,32.80
2019-01-19T18:22:52.547Z,33.67
2019-01-19T18:26:53.023Z,33.50
2019-01-19T18:30:24.442Z,30.50
2019-01-19T18:33:54.161Z,31.93
2019-01-19T18:38:03.723Z,31.23
2019-01-19T18:41:39.746Z,31.73
2019-01-19T18:45:10.178Z,31.73
2019-01-19T18:48:43.484Z,33.43
2019-01-19T18:52:22.468Z,31.83
2019-01-19T18:56:05.657Z,32.10
2019-01-19T18:59:51.253Z,32.90
2019-01-19T19:03:11.971Z,29.83
2019-01-19T19:07:06.461Z,32.03
2019-01-19T19:10:54.456Z,31.47
2019-01-19T19:14:29.190Z,30.43
2019-01-19T19:17:48.376Z,31.07
2019-01-19T19:21:46.220Z,31.10
2019-01-19T19:25:15.994Z,32.53
2019-01-19T19:28:48.085Z,31.43
2019-01-19T19:32:03.228Z,31.80
2019-01-19T19:35:33.445Z,30.90
2019-01-19T19:39:21.913Z,30.23
2019-01-19T19:43:22.374Z,32.77
2019-01-19T19:47:04.649Z,30.57
2019-01-19T19:50:52.107Z,32.10
2019-01-19T19:54:06.563Z,30.70
2019-01-19T19:57:13.197Z,31.27
2019-01-19T20:00:17.374Z,30.87
2019-01-19T20:03:21.363Z,31.23
2019-01-19T20:06:25.774Z,31.10
2019-01-19T20:09:29.985Z,31.83
2019-01-19T20:12:35.553Z,30.73
2019-01-19T20:15:39.522Z,31.97
2019-01-19T20:18:43.585Z,29.80
2019-01-19T20:21:47.644Z,30.77
2019-01-19T20:24:52.786Z,29.47
2019-01-19T20:27:58.248Z,31.10
2019-01-19T20:31:02.156Z,30.97
2019-01-19T20:34:06.156Z,29.40
2019-01-19T20:37:10.198Z,29.67
2019-01-19T20:40:14.193Z,30.40
2019-01-19T20:43:18.066Z,29.40
2019-01-19T20:46:21.983Z,28.70
2019-01-19T20:49:29.695Z,29.17
2019-01-19T20:52:33.845Z,26.90
2019-01-19T20:55:37.888Z,26.33
2019-01-19T20:58:41.884Z,24.03
2019-01-19T21:01:45.863Z,24.87
2019-01-19T21:04:49.851Z,26.00
2019-01-19T21:07:54.329Z,26.23
2019-01-19T21:10:58.414Z,25.30
2019-01-19T21:14:02.368Z,25.03
2019-01-19T21:17:07.021Z,25.23
2019-01-19T21:20:11.931Z,25.20
2019-01-19T21:23:15.807Z,24.93
2019-01-19T21:26:20.167Z,25.83
2019-01-19T21:29:24.196Z,24.93
2019-01-19T21:32:28.387Z,25.17
2019-01-19T21:35:32.419Z,24.47
2019-01-19T21:38:36.438Z,25.03
2019-01-19T21:41:40.694Z,24.63
2019-01-19T21:44:44.651Z,25.83
2019-01-19T21:47:48.685Z,24.20
2019-01-19T21:50:53.854Z,23.87
2019-01-19T21:53:57.855Z,24.80
2019-01-19T21:57:01.800Z,25.27
2019-01-19T22:00:09.362Z,24.53
2019-01-19T22:03:13.493Z,25.20
2019-01-19T22:06:17.485Z,24.10
2019-01-19T22:09:21.427Z,23.60
2019-01-19T22:12:25.352Z,25.13
2019-01-19T22:15:29.305Z,25.30
2019-01-19T22:18:34.871Z,26.47
2019-01-19T22:21:38.933Z,25.33
2019-01-19T22:24:42.799Z,25.03
2019-01-19T22:27:48.297Z,26.73
2019-01-19T22:30:52.264Z,26.83
2019-01-19T22:33:56.275Z,26.27
2019-01-19T22:37:00.306Z,26.07
2019-01-19T22:40:05.313Z,25.83
2019-01-19T22:43:12.104Z,25.53
2019-01-19T22:46:16.071Z,25.53
2019-01-19T22:49:20.121Z,25.53
2019-01-19T22:52:24.107Z,25.70
2019-01-19T22:55:28.031Z,25.20
2019-01-19T22:58:31.916Z,24.33
2019-01-19T23:01:39.853Z,24.73
2019-01-19T23:04:44.450Z,26.40
2019-01-19T23:07:49.309Z,25.10
2019-01-19T23:10:53.247Z,24.50
2019-01-19T23:13:57.265Z,24.63
2019-01-19T23:17:01.281Z,23.10
2019-01-19T23:20:05.967Z,25.00
2019-01-19T23:23:09.985Z,24.30
2019-01-19T23:26:14.194Z,23.87
2019-01-19T23:29:18.178Z,24.97
2019-01-19T23:32:22.140Z,22.60
2019-01-19T23:35:28.910Z,24.33
2019-01-19T23:38:32.913Z,23.13
2019-01-19T23:41:36.938Z,24.90
2019-01-19T23:44:40.954Z,23.97
2019-01-19T23:47:44.902Z,24.73
2019-01-19T23:50:48.834Z,24.17
2019-01-19T23:53:52.770Z,23.07
2019-01-19T23:56:58.276Z,23.07
